Time;durP1;ratioP1;P1;durP2;ratioP2;P2;SDS_P1;SDS_P2;PMS_P1;PMS_P2;Temp;Humidity;BMP_temperature;BMP_pressure;BME280_temperature;BME280_humidity;BME280_pressure;Samples;Min_cycle;Max_cycle;Signal;HPM_P1;HPM_P2
2022/09/06 00:00:11;;;;;;;11.80;9.00;;;20.10;99.90;;;;;;5037423;28;20420;-94
2022/09/06 00:02:37;;;;;;;10.33;9.30;;;20.00;99.90;;;;;;5022461;28;20423;-90
2022/09/06 00:05:04;;;;;;;10.90;8.93;;;20.00;99.90;;;;;;5040401;28;20488;-90
2022/09/06 00:07:30;;;;;;;13.73;10.50;;;20.00;99.90;;;;;;5017413;28;20474;-89
2022/09/06 00:09:56;;;;;;;11.63;9.23;;;20.00;99.90;;;;;;5034766;28;20506;-94
2022/09/06 00:12:22;;;;;;;12.53;9.63;;;20.00;99.90;;;;;;5017401;28;20515;-94
2022/09/06 00:14:48;;;;;;;9.93;8.93;;;20.00;99.90;;;;;;5017400;28;20253;-93
2022/09/06 00:17:14;;;;;;;10.93;9.70;;;20.00;99.90;;;;;;5050539;28;20452;-91
2022/09/06 00:19:40;;;;;;;10.50;9.47;;;20.00;99.90;;;;;;5017364;28;20201;-90
2022/09/06 00:22:05;;;;;;;10.87;9.77;;;20.00;99.90;;;;;;5034876;28;20699;-95
2022/09/06 00:24:31;;;;;;;10.67;9.57;;;20.00;99.90;;;;;;5034649;28;20277;-92
2022/09/06 00:26:56;;;;;;;10.23;9.30;;;19.90;99.90;;;;;;5050570;28;20229;-94
2022/09/06 00:29:22;;;;;;;10.73;9.73;;;19.90;99.90;;;;;;5050213;28;20670;-89
2022/09/06 00:31:47;;;;;;;12.60;9.73;;;19.90;99.90;;;;;;5036363;28;20170;-90
2022/09/06 00:34:13;;;;;;;10.43;8.93;;;19.90;99.90;;;;;;5042731;28;20701;-92
2022/09/06 00:36:39;;;;;;;11.10;9.20;;;19.90;99.90;;;;;;5054729;28;20217;-91
2022/09/06 00:39:05;;;;;;;10.47;9.40;;;19.80;99.90;;;;;;5035116;28;20666;-90
2022/09/06 00:41:31;;;;;;;10.17;9.13;;;19.80;99.90;;;;;;5037580;28;20182;-94
2022/09/06 00:43:56;;;;;;;14.80;10.43;;;19.80;99.90;;;;;;5052038;28;20222;-90
2022/09/06 00:46:27;;;;;;;12.63;10.27;;;19.80;99.90;;;;;;5036811;28;20445;-90
2022/09/06 00:48:59;;;;;;;12.27;9.90;;;19.70;99.90;;;;;;5036886;28;20591;-93
2022/09/06 00:51:27;;;;;;;11.90;10.70;;;19.70;99.90;;;;;;5019996;28;20434;-94
2022/09/06 00:53:53;;;;;;;10.37;9.27;;;19.70;99.90;;;;;;5023871;28;20411;-90
2022/09/06 00:56:19;;;;;;;10.53;9.53;;;19.70;99.90;;;;;;5057207;28;20429;-90
2022/09/06 00:58:45;;;;;;;11.03;9.60;;;19.70;99.90;;;;;;5067600;28;20192;-93
2022/09/06 01:01:11;;;;;;;11.67;10.47;;;19.70;99.90;;;;;;5047667;28;20209;-94
2022/09/06 01:03:37;;;;;;;12.30;9.90;;;19.60;99.90;;;;;;5026505;28;20474;-94
2022/09/06 01:06:24;;;;;;;13.67;10.10;;;19.70;99.90;;;;;;5029228;28;20725;-94
2022/09/06 01:09:27;;;;;;;15.70;10.87;;;19.70;99.90;;;;;;5020556;28;20434;-90
2022/09/06 01:12:22;;;;;;;14.40;10.30;;;19.60;99.90;;;;;;5046769;28;20434;-90
2022/09/06 01:15:14;;;;;;;9.70;8.40;;;19.60;99.90;;;;;;5020721;28;20537;-94
2022/09/06 01:18:00;;;;;;;11.53;10.10;;;19.60;99.90;;;;;;5020511;28;20441;-94
2022/09/06 01:20:46;;;;;;;12.83;9.40;;;19.60;99.90;;;;;;5020322;28;20446;-94
2022/09/06 01:23:38;;;;;;;11.90;9.50;;;19.60;99.90;;;;;;4990249;28;20855;-90
2022/09/06 01:26:36;;;;;;;11.77;10.57;;;19.50;99.90;;;;;;5037656;28;20477;-90
2022/09/06 01:29:14;;;;;;;12.73;11.37;;;19.50;99.90;;;;;;5024041;28;20469;-94
2022/09/06 01:31:56;;;;;;;10.97;9.63;;;19.50;99.90;;;;;;5041936;28;20458;-94
2022/09/06 01:34:36;;;;;;;10.53;9.43;;;19.50;99.90;;;;;;5038250;28;20434;-91
2022/09/06 01:37:07;;;;;;;12.90;10.30;;;19.50;99.90;;;;;;5038428;28;20907;-95
2022/09/06 01:39:34;;;;;;;13.03;10.20;;;19.40;99.90;;;;;;5038697;28;20440;-94
2022/09/06 01:42:08;;;;;;;11.20;10.00;;;19.40;99.90;;;;;;5038391;28;20410;-95
2022/09/06 01:44:36;;;;;;;11.13;10.00;;;19.40;99.90;;;;;;5020649;28;20568;-90
2022/09/06 01:47:16;;;;;;;14.20;11.13;;;19.40;99.90;;;;;;5020524;28;20521;-94
2022/09/06 01:49:59;;;;;;;12.83;10.70;;;19.40;99.90;;;;;;5020658;28;20843;-94
2022/09/06 01:52:42;;;;;;;10.70;9.60;;;19.40;99.90;;;;;;5020494;28;20431;-89
2022/09/06 01:55:38;;;;;;;15.63;10.63;;;19.30;99.90;;;;;;5020876;28;20454;-89
2022/09/06 01:58:18;;;;;;;10.57;9.50;;;19.30;99.90;;;;;;5021649;28;20430;-95
2022/09/06 02:00:54;;;;;;;14.50;12.40;;;19.30;99.90;;;;;;5022085;28;20447;-90
2022/09/06 02:03:28;;;;;;;15.17;13.60;;;19.30;99.90;;;;;;5023560;28;20422;-93
2022/09/06 02:06:01;;;;;;;15.10;11.27;;;19.30;99.90;;;;;;5022310;28;20452;-94
2022/09/06 02:08:38;;;;;;;14.23;12.00;;;19.30;99.90;;;;;;5039860;28;20474;-94
2022/09/06 02:11:06;;;;;;;13.77;11.00;;;19.20;99.90;;;;;;5022186;28;20450;-94
2022/09/06 02:14:02;;;;;;;16.13;12.67;;;19.20;99.90;;;;;;5031608;28;20402;-89
2022/09/06 02:16:31;;;;;;;14.73;11.87;;;19.20;99.90;;;;;;5043161;28;20415;-90
2022/09/06 02:18:59;;;;;;;19.73;13.23;;;19.20;99.90;;;;;;5025560;28;20470;-94
2022/09/06 02:21:35;;;;;;;14.43;11.70;;;19.20;99.90;;;;;;5038199;28;20415;-94
2022/09/06 02:24:06;;;;;;;16.50;11.37;;;19.20;99.90;;;;;;5020937;28;20461;-95
2022/09/06 02:26:35;;;;;;;12.47;11.00;;;19.20;99.90;;;;;;5038673;28;20513;-89
2022/09/06 02:29:01;;;;;;;15.20;9.90;;;19.20;99.90;;;;;;5038439;28;20402;-90
2022/09/06 02:31:36;;;;;;;12.50;10.47;;;19.20;99.90;;;;;;5038377;28;20497;-90
2022/09/06 02:34:02;;;;;;;21.80;11.20;;;19.20;99.90;;;;;;5019666;28;20272;-90
2022/09/06 02:36:30;;;;;;;13.00;11.70;;;19.20;99.90;;;;;;5023109;28;20422;-92
2022/09/06 02:38:58;;;;;;;14.00;12.03;;;19.10;99.90;;;;;;5022493;28;20407;-94
2022/09/06 02:41:24;;;;;;;14.80;10.87;;;19.10;99.90;;;;;;5020085;28;20472;-94
2022/09/06 02:43:50;;;;;;;16.77;12.77;;;19.10;99.90;;;;;;5021130;28;20474;-94
2022/09/06 02:46:15;;;;;;;15.90;12.30;;;19.10;99.90;;;;;;5038538;28;20418;-94
2022/09/06 02:48:41;;;;;;;14.47;11.40;;;19.10;99.90;;;;;;5020134;28;20182;-93
2022/09/06 02:51:08;;;;;;;18.80;11.60;;;19.00;99.90;;;;;;5038011;28;20207;-95
2022/09/06 02:53:34;;;;;;;12.97;11.50;;;19.00;99.90;;;;;;5020941;28;20185;-93
2022/09/06 02:56:00;;;;;;;16.20;12.20;;;19.00;99.90;;;;;;5021414;28;20978;-90
2022/09/06 02:58:26;;;;;;;16.33;12.27;;;19.00;99.90;;;;;;5019908;28;20501;-91
2022/09/06 03:00:52;;;;;;;11.83;10.63;;;18.90;99.90;;;;;;5020396;28;20463;-94
2022/09/06 03:03:19;;;;;;;14.40;12.30;;;18.90;99.90;;;;;;5019605;28;20190;-90
2022/09/06 03:05:50;;;;;;;13.10;11.53;;;18.90;99.90;;;;;;5037883;28;20437;-94
2022/09/06 03:08:18;;;;;;;13.80;11.90;;;18.90;99.90;;;;;;5021086;28;20443;-89
2022/09/06 03:10:48;;;;;;;16.70;13.00;;;18.90;99.90;;;;;;5019471;28;20446;-94
2022/09/06 03:13:15;;;;;;;13.40;11.97;;;18.90;99.90;;;;;;5037163;28;20410;-95
2022/09/06 03:15:40;;;;;;;15.13;11.30;;;18.80;99.90;;;;;;5020122;28;20513;-94
2022/09/06 03:18:06;;;;;;;13.33;11.93;;;18.80;99.90;;;;;;5038550;28;20425;-95
2022/09/06 03:20:31;;;;;;;14.20;12.60;;;18.90;99.90;;;;;;5020361;28;20219;-94
2022/09/06 03:22:57;;;;;;;18.03;12.20;;;18.90;99.90;;;;;;5038135;28;20268;-94
2022/09/06 03:25:24;;;;;;;14.27;11.40;;;18.90;99.90;;;;;;5020267;28;20701;-94
2022/09/06 03:27:50;;;;;;;12.20;10.77;;;18.80;99.90;;;;;;5021570;28;20226;-91
2022/09/06 03:30:16;;;;;;;13.33;12.00;;;18.80;99.90;;;;;;5025255;28;20425;-90
2022/09/06 03:32:42;;;;;;;12.90;11.60;;;18.80;99.90;;;;;;5026231;28;20439;-94
2022/09/06 03:35:08;;;;;;;14.67;11.23;;;18.80;99.90;;;;;;5018999;28;20784;-93
2022/09/06 03:37:34;;;;;;;12.43;11.07;;;18.80;99.90;;;;;;5046094;28;20437;-94
2022/09/06 03:40:00;;;;;;;19.40;11.73;;;18.80;99.90;;;;;;5044490;28;20527;-90
2022/09/06 03:42:26;;;;;;;14.13;11.23;;;18.80;99.90;;;;;;5036963;28;20187;-90
2022/09/06 03:44:52;;;;;;;15.83;11.80;;;18.80;99.90;;;;;;5018505;28;20478;-95
2022/09/06 03:47:19;;;;;;;13.10;10.67;;;18.80;99.90;;;;;;5018856;28;20445;-89
2022/09/06 03:49:45;;;;;;;14.50;11.50;;;18.80;99.90;;;;;;5018882;28;20969;-94
2022/09/06 03:52:11;;;;;;;12.83;10.97;;;18.70;99.90;;;;;;5036448;28;20482;-94
2022/09/06 03:54:37;;;;;;;15.53;10.73;;;18.70;99.90;;;;;;5018671;28;20438;-90
2022/09/06 03:57:02;;;;;;;18.70;11.67;;;18.70;99.90;;;;;;5019294;28;20190;-89
2022/09/06 03:59:28;;;;;;;11.40;10.20;;;18.70;99.90;;;;;;5037416;28;20280;-90
2022/09/06 04:01:54;;;;;;;18.57;11.33;;;18.70;99.90;;;;;;5019706;28;20444;-94
2022/09/06 04:04:19;;;;;;;18.63;12.60;;;18.60;99.90;;;;;;5037405;28;20308;-95
2022/09/06 04:06:45;;;;;;;13.47;11.40;;;18.60;99.90;;;;;;5019838;28;20222;-93
2022/09/06 04:09:11;;;;;;;13.30;11.60;;;18.50;99.90;;;;;;5019622;28;20277;-90
2022/09/06 04:11:36;;;;;;;14.80;11.60;;;18.50;99.90;;;;;;5019691;28;20197;-90
2022/09/06 04:14:02;;;;;;;13.63;11.30;;;18.50;99.90;;;;;;5037224;28;20206;-95
2022/09/06 04:16:28;;;;;;;17.30;11.93;;;18.50;99.90;;;;;;5024146;28;20191;-93
2022/09/06 04:18:54;;;;;;;14.47;11.70;;;18.50;99.90;;;;;;5017366;28;20274;-94
2022/09/06 04:21:19;;;;;;;14.00;11.37;;;18.50;99.90;;;;;;5017344;28;20963;-90
2022/09/06 04:23:45;;;;;;;13.43;11.60;;;18.40;99.90;;;;;;5016266;28;20231;-90
2022/09/06 04:26:11;;;;;;;17.17;12.30;;;18.40;99.90;;;;;;5007261;28;20253;-94
2022/09/06 04:28:36;;;;;;;19.00;13.40;;;18.40;99.90;;;;;;5021242;28;20679;-89
2022/09/06 04:31:03;;;;;;;14.27;12.50;;;18.40;99.90;;;;;;5047870;28;20214;-89
2022/09/06 04:33:31;;;;;;;13.97;11.20;;;18.40;99.90;;;;;;5036489;28;20221;-93
2022/09/06 04:36:00;;;;;;;12.80;10.70;;;18.40;99.90;;;;;;5027736;28;20508;-90
2022/09/06 04:38:27;;;;;;;13.33;11.93;;;18.30;99.90;;;;;;5022946;28;20504;-93
2022/09/06 04:40:56;;;;;;;15.30;12.83;;;18.30;99.90;;;;;;5031758;28;20446;-89
2022/09/06 04:43:22;;;;;;;14.17;12.40;;;18.30;99.90;;;;;;5021970;28;20512;-90
2022/09/06 04:45:48;;;;;;;16.50;12.30;;;18.30;99.90;;;;;;5027927;28;20510;-93
2022/09/06 04:48:14;;;;;;;16.93;12.17;;;18.30;99.90;;;;;;5033511;28;20423;-94
2022/09/06 04:50:40;;;;;;;14.53;11.80;;;18.30;99.90;;;;;;5031564;28;20212;-89
2022/09/06 04:53:06;;;;;;;18.10;11.80;;;18.30;99.90;;;;;;5037195;28;20537;-93
2022/09/06 04:55:33;;;;;;;13.47;12.07;;;18.30;99.90;;;;;;5024473;28;20219;-96
2022/09/06 04:58:00;;;;;;;15.50;11.40;;;18.30;99.90;;;;;;5016919;28;20461;-90
2022/09/06 05:00:27;;;;;;;13.97;12.57;;;18.40;99.90;;;;;;5017998;28;20477;-94
2022/09/06 05:02:53;;;;;;;13.10;11.80;;;18.40;99.90;;;;;;5016337;28;20429;-93
2022/09/06 05:05:18;;;;;;;14.83;11.87;;;18.40;99.90;;;;;;5036093;28;20999;-90
2022/09/06 05:07:44;;;;;;;18.50;12.53;;;18.40;99.90;;;;;;5038533;28;20255;-91
2022/09/06 05:10:10;;;;;;;16.40;12.63;;;18.40;99.90;;;;;;5014463;28;20231;-90
2022/09/06 05:12:35;;;;;;;15.77;11.13;;;18.50;99.90;;;;;;5032507;28;20201;-94
2022/09/06 05:15:01;;;;;;;17.47;11.40;;;18.50;99.90;;;;;;5028505;28;20217;-94
2022/09/06 05:17:27;;;;;;;16.97;13.13;;;18.60;99.90;;;;;;5015510;28;20189;-94
2022/09/06 05:19:52;;;;;;;14.50;12.90;;;18.60;99.90;;;;;;5005743;28;20222;-94
2022/09/06 05:22:18;;;;;;;16.83;12.90;;;18.70;99.90;;;;;;5012255;28;20211;-94
2022/09/06 05:24:45;;;;;;;15.83;12.93;;;18.70;99.90;;;;;;5031182;28;20501;-94
2022/09/06 05:27:11;;;;;;;16.37;13.27;;;18.70;99.90;;;;;;5050605;28;20195;-89
2022/09/06 05:29:37;;;;;;;18.30;13.73;;;18.80;99.90;;;;;;5034267;28;20441;-94
2022/09/06 05:32:03;;;;;;;16.80;13.73;;;18.90;99.90;;;;;;5052047;28;21020;-93
2022/09/06 05:34:29;;;;;;;23.90;13.70;;;19.00;99.90;;;;;;5045579;28;20529;-95
2022/09/06 05:36:54;;;;;;;19.70;14.77;;;19.00;99.90;;;;;;5055770;28;20203;-93
2022/09/06 05:39:20;;;;;;;20.27;15.27;;;19.10;99.90;;;;;;5049315;28;20217;-94
2022/09/06 05:41:46;;;;;;;17.10;14.50;;;19.20;99.90;;;;;;5038075;28;20227;-94
2022/09/06 05:44:13;;;;;;;24.50;15.90;;;19.20;99.90;;;;;;5037797;28;20891;-89
2022/09/06 05:46:45;;;;;;;19.63;14.63;;;19.30;99.90;;;;;;5061325;28;20192;-89
2022/09/06 05:49:12;;;;;;;18.00;13.73;;;19.40;99.90;;;;;;5053407;28;20496;-94
2022/09/06 05:51:38;;;;;;;17.10;13.57;;;19.50;99.90;;;;;;5042738;28;20833;-95
2022/09/06 05:54:04;;;;;;;14.90;13.10;;;19.60;99.90;;;;;;5048075;28;20436;-89
2022/09/06 05:56:30;;;;;;;23.73;13.77;;;19.60;99.90;;;;;;5046456;28;20426;-90
2022/09/06 05:58:55;;;;;;;18.60;14.33;;;19.70;99.90;;;;;;5058252;28;20193;-89
2022/09/06 06:01:26;;;;;;;19.97;15.47;;;19.80;99.90;;;;;;5037595;28;20185;-90
2022/09/06 06:03:57;;;;;;;16.10;13.93;;;19.90;99.90;;;;;;5035672;28;20231;-94
2022/09/06 06:06:26;;;;;;;18.07;13.77;;;20.00;99.90;;;;;;5043450;28;20434;-94
2022/09/06 06:08:52;;;;;;;22.70;14.80;;;20.00;99.90;;;;;;5037306;28;20424;-90
2022/09/06 06:11:18;;;;;;;16.17;14.20;;;20.10;99.90;;;;;;5040669;28;20429;-93
2022/09/06 06:13:44;;;;;;;17.47;13.43;;;20.20;99.90;;;;;;5036929;28;20231;-94
2022/09/06 06:16:12;;;;;;;19.70;12.17;;;20.30;99.90;;;;;;5037222;28;20470;-89
2022/09/06 06:18:38;;;;;;;18.47;13.37;;;20.40;99.90;;;;;;5037099;28;20284;-89
2022/09/06 06:21:14;;;;;;;16.73;12.80;;;20.50;99.90;;;;;;5055516;28;20533;-90
2022/09/06 06:23:41;;;;;;;13.37;11.97;;;20.60;99.90;;;;;;5028823;28;20471;-95
2022/09/06 06:26:08;;;;;;;14.40;12.83;;;20.70;99.90;;;;;;5038277;28;20466;-90
2022/09/06 06:28:35;;;;;;;19.33;14.40;;;20.80;99.90;;;;;;5075815;28;20479;-89
2022/09/06 06:31:05;;;;;;;13.23;11.20;;;20.90;99.90;;;;;;5052297;28;20534;-94
2022/09/06 06:33:31;;;;;;;14.43;13.00;;;20.90;99.90;;;;;;5027266;28;20510;-93
2022/09/06 06:36:20;;;;;;;14.57;12.47;;;21.00;99.90;;;;;;5058465;28;20591;-94
2022/09/06 06:38:46;;;;;;;12.80;10.70;;;21.10;99.90;;;;;;5060150;28;20826;-89
2022/09/06 06:41:14;;;;;;;12.07;10.00;;;21.20;99.90;;;;;;5076513;28;20414;-94
2022/09/06 06:43:40;;;;;;;27.53;17.97;;;21.30;99.90;;;;;;5050299;28;20557;-89
2022/09/06 06:46:11;;;;;;;135.13;81.07;;;21.30;99.90;;;;;;5045052;28;20479;-89
2022/09/06 06:48:42;;;;;;;11.00;9.83;;;21.40;99.90;;;;;;5052566;28;20513;-90
2022/09/06 06:51:08;;;;;;;15.67;12.63;;;21.40;99.90;;;;;;5054606;28;20437;-89
2022/09/06 06:53:34;;;;;;;9.97;8.97;;;21.50;99.90;;;;;;5049856;28;20532;-89
2022/09/06 06:56:00;;;;;;;12.53;9.80;;;21.60;99.90;;;;;;5045733;28;20500;-89
2022/09/06 06:58:26;;;;;;;11.00;9.80;;;21.70;99.90;;;;;;5054123;28;20427;-94
2022/09/06 07:00:52;;;;;;;10.00;9.00;;;21.70;99.90;;;;;;5056129;28;20438;-89
2022/09/06 07:03:18;;;;;;;9.40;8.47;;;21.80;99.90;;;;;;5057128;28;21065;-89
2022/09/06 07:05:45;;;;;;;10.37;8.77;;;21.90;99.90;;;;;;5036708;28;20561;-94
2022/09/06 07:08:11;;;;;;;9.97;8.97;;;21.90;99.90;;;;;;5039037;28;20197;-90
2022/09/06 07:10:37;;;;;;;9.10;8.20;;;22.00;99.90;;;;;;5028862;28;20463;-94
2022/09/06 07:13:03;;;;;;;8.73;7.83;;;22.10;99.90;;;;;;5042742;28;20222;-93
2022/09/06 07:15:29;;;;;;;9.00;8.10;;;22.20;99.90;;;;;;5057893;28;20209;-94
2022/09/06 07:17:56;;;;;;;7.97;7.27;;;22.30;99.90;;;;;;5054236;28;20427;-95
2022/09/06 07:20:26;;;;;;;10.60;8.43;;;22.40;99.90;;;;;;5016728;28;20440;-94
2022/09/06 07:22:59;;;;;;;9.70;8.70;;;22.40;99.90;;;;;;5034859;28;20439;-94
2022/09/06 07:25:27;;;;;;;9.43;8.53;;;22.50;99.90;;;;;;5039776;28;20488;-89
2022/09/06 07:28:05;;;;;;;9.07;8.17;;;22.60;99.90;;;;;;5037229;28;20464;-94
2022/09/06 07:30:33;;;;;;;10.90;8.80;;;22.70;99.90;;;;;;5020862;28;20446;-94
2022/09/06 07:32:59;;;;;;;9.83;8.83;;;22.80;99.90;;;;;;5028312;28;20918;-90
2022/09/06 07:35:25;;;;;;;8.10;7.40;;;22.90;99.90;;;;;;5059096;28;20454;-95
2022/09/06 07:37:59;;;;;;;9.17;7.77;;;23.00;99.90;;;;;;5024905;28;20421;-95
2022/09/06 07:40:27;;;;;;;7.50;6.80;;;23.10;99.90;;;;;;5020352;28;20456;-95
2022/09/06 07:42:57;;;;;;;7.83;7.03;;;23.20;99.90;;;;;;5027410;28;20783;-94
2022/09/06 07:45:23;;;;;;;9.40;8.50;;;23.30;99.90;;;;;;5016288;28;20508;-90
2022/09/06 07:47:54;;;;;;;7.67;6.97;;;23.40;99.90;;;;;;5054434;28;20416;-90
2022/09/06 07:50:20;;;;;;;10.23;7.60;;;23.50;99.90;;;;;;5041334;28;21029;-90
2022/09/06 07:52:46;;;;;;;9.10;8.20;;;23.60;99.90;;;;;;5066489;28;20434;-93
2022/09/06 07:55:11;;;;;;;8.83;7.93;;;23.60;99.90;;;;;;5037277;28;20961;-90
2022/09/06 07:57:37;;;;;;;11.97;7.30;;;23.70;99.90;;;;;;5060908;28;20439;-90
2022/09/06 08:00:04;;;;;;;8.43;7.57;;;23.80;99.90;;;;;;5073602;28;20746;-90
2022/09/06 08:02:30;;;;;;;12.00;7.50;;;23.90;99.90;;;;;;5051020;28;20241;-89
2022/09/06 08:04:56;;;;;;;9.60;8.67;;;24.00;99.90;;;;;;5039212;28;20478;-94
2022/09/06 08:07:23;;;;;;;8.33;7.10;;;24.10;99.90;;;;;;5031696;28;20431;-90
2022/09/06 08:09:50;;;;;;;8.57;7.13;;;24.10;99.90;;;;;;5056126;28;20212;-95
2022/09/06 08:12:15;;;;;;;8.03;7.33;;;24.20;99.90;;;;;;5044777;28;20468;-90
2022/09/06 08:14:41;;;;;;;7.03;6.17;;;24.30;99.90;;;;;;5050947;28;20455;-89
2022/09/06 08:17:06;;;;;;;7.20;6.20;;;24.30;99.90;;;;;;5054452;28;20601;-93
2022/09/06 08:19:33;;;;;;;7.23;6.53;;;24.40;99.90;;;;;;5056516;28;20767;-90
2022/09/06 08:21:59;;;;;;;7.40;6.80;;;24.50;99.90;;;;;;5047612;28;20192;-90
2022/09/06 08:24:25;;;;;;;6.50;5.90;;;24.60;99.90;;;;;;5053770;28;20473;-93
2022/09/06 08:26:50;;;;;;;6.13;5.53;;;24.70;99.90;;;;;;5030792;28;20260;-95
2022/09/06 08:29:18;;;;;;;6.03;5.53;;;24.90;99.90;;;;;;5038312;28;20465;-90
2022/09/06 08:31:44;;;;;;;6.07;5.53;;;25.00;99.90;;;;;;5042205;28;20274;-90
2022/09/06 08:34:14;;;;;;;6.67;5.97;;;25.10;99.90;;;;;;5043212;28;20464;-90
2022/09/06 08:36:40;;;;;;;6.00;5.57;;;25.30;99.90;;;;;;5047288;28;20455;-90
2022/09/06 08:39:08;;;;;;;6.87;5.10;;;25.80;99.90;;;;;;5048487;28;20431;-90
2022/09/06 08:42:00;;;;;;;5.80;5.20;;;26.50;99.90;;;;;;5033568;28;20497;-95
2022/09/06 08:44:31;;;;;;;5.20;4.70;;;27.50;99.90;;;;;;5048342;28;20475;-95
2022/09/06 08:47:06;;;;;;;4.73;4.33;;;28.40;99.90;;;;;;5052403;28;20453;-90
2022/09/06 08:49:35;;;;;;;5.53;4.57;;;28.90;99.90;;;;;;5030400;28;20463;-89
2022/09/06 08:52:24;;;;;;;5.90;4.10;;;29.00;99.90;;;;;;5051238;28;20912;-95
2022/09/06 08:55:39;;;;;;;4.87;4.43;;;28.80;99.90;;;;;;5029814;28;20461;-90
2022/09/06 08:58:04;;;;;;;5.00;4.60;;;28.50;99.90;;;;;;5050796;28;20521;-90
2022/09/06 09:00:32;;;;;;;4.70;4.30;;;28.30;99.90;;;;;;5039780;28;20444;-90
2022/09/06 09:03:20;;;;;;;5.33;4.93;;;28.10;99.90;;;;;;5054838;28;20197;-94
2022/09/06 09:05:52;;;;;;;7.70;5.83;;;27.90;99.90;;;;;;5023840;28;20450;-95
2022/09/06 09:08:26;;;;;;;7.17;6.40;;;27.70;99.90;;;;;;5028945;28;20465;-89
2022/09/06 09:11:04;;;;;;;286.87;196.23;;;27.50;99.90;;;;;;5031664;28;20446;-90
2022/09/06 09:13:33;;;;;;;8.13;7.20;;;27.40;99.90;;;;;;5037822;28;20407;-89
2022/09/06 09:16:00;;;;;;;6.90;5.53;;;27.30;99.90;;;;;;5043156;28;20472;-94
2022/09/06 09:18:32;;;;;;;5.60;5.10;;;27.30;99.90;;;;;;5035356;28;20418;-93
2022/09/06 09:20:58;;;;;;;6.00;5.00;;;27.20;99.90;;;;;;5034811;28;20641;-95
2022/09/06 09:23:24;;;;;;;5.93;5.23;;;27.20;99.90;;;;;;5044440;28;20433;-90
2022/09/06 09:25:51;;;;;;;5.90;5.30;;;27.20;99.90;;;;;;5017756;28;20467;-95
2022/09/06 09:28:21;;;;;;;5.50;4.97;;;27.10;99.90;;;;;;5016775;28;20843;-89
2022/09/06 09:30:49;;;;;;;5.80;5.30;;;27.10;99.90;;;;;;5017251;28;20460;-91
2022/09/06 09:33:39;;;;;;;5.83;5.33;;;27.10;99.90;;;;;;5036442;28;20987;-90
2022/09/06 09:36:13;;;;;;;5.40;4.40;;;27.00;99.90;;;;;;5035296;28;20482;-95
2022/09/06 09:38:44;;;;;;;5.27;4.80;;;27.00;99.90;;;;;;5032697;28;20444;-95
2022/09/06 09:41:23;;;;;;;5.60;5.10;;;27.10;99.90;;;;;;5034783;28;20464;-90
2022/09/06 09:43:57;;;;;;;5.57;5.17;;;27.00;99.90;;;;;;5028034;28;20471;-94
2022/09/06 09:46:22;;;;;;;6.37;5.20;;;27.10;99.90;;;;;;5060349;28;20437;-95
2022/09/06 09:49:07;;;;;;;4.63;4.33;;;27.10;99.90;;;;;;5037063;28;20501;-94
2022/09/06 09:51:37;;;;;;;7.77;4.70;;;27.10;99.90;;;;;;5044345;28;20186;-89
2022/09/06 09:54:07;;;;;;;4.73;4.33;;;27.10;99.90;;;;;;5061587;28;20411;-90
2022/09/06 09:56:44;;;;;;;5.23;4.83;;;27.10;99.90;;;;;;5063069;28;20889;-95
2022/09/06 09:59:18;;;;;;;4.73;4.33;;;27.00;99.90;;;;;;5055738;28;20474;-91
2022/09/06 10:01:44;;;;;;;4.87;4.47;;;27.00;99.90;;;;;;5041059;28;20430;-95
2022/09/06 10:04:15;;;;;;;4.27;3.97;;;27.00;99.90;;;;;;5046574;28;20513;-90
2022/09/06 10:06:42;;;;;;;5.30;4.80;;;26.90;99.90;;;;;;5048149;28;20250;-89
2022/09/06 10:09:29;;;;;;;5.07;4.67;;;26.90;99.90;;;;;;5038580;28;20450;-90
2022/09/06 10:11:57;;;;;;;4.93;4.53;;;26.90;99.90;;;;;;5029711;28;20836;-90
2022/09/06 10:14:27;;;;;;;225.10;124.40;;;26.90;99.90;;;;;;5049421;28;20479;-91
2022/09/06 10:16:54;;;;;;;40.23;30.60;;;26.90;99.90;;;;;;5038591;28;20423;-90
2022/09/06 10:19:40;;;;;;;9.80;8.47;;;26.90;99.90;;;;;;5041448;28;20443;-96
2022/09/06 10:22:25;;;;;;;4.93;4.53;;;26.90;99.90;;;;;;5040025;28;20469;-95
2022/09/06 10:25:05;;;;;;;4.43;4.07;;;27.00;99.90;;;;;;5039497;28;20471;-90
2022/09/06 10:27:32;;;;;;;6.23;4.67;;;27.00;99.90;;;;;;5040115;28;20430;-95
2022/09/06 10:30:05;;;;;;;4.30;4.00;;;27.00;99.90;;;;;;5057949;28;20439;-95
2022/09/06 10:32:46;;;;;;;4.73;4.33;;;27.00;99.90;;;;;;5044581;28;20521;-90
2022/09/06 10:35:18;;;;;;;4.17;3.87;;;27.00;99.90;;;;;;5046391;28;20468;-95
2022/09/06 10:38:15;;;;;;;4.00;3.70;;;27.00;99.90;;;;;;5036341;28;20435;-95
2022/09/06 10:40:53;;;;;;;7.80;4.30;;;27.10;99.90;;;;;;5051398;28;20869;-90
2022/09/06 10:43:19;;;;;;;5.57;4.10;;;27.20;99.90;;;;;;5051044;28;20431;-90
2022/09/06 10:46:01;;;;;;;4.67;4.30;;;27.20;99.90;;;;;;5065119;28;20483;-95
2022/09/06 10:48:34;;;;;;;7.53;4.60;;;27.30;99.90;;;;;;5051299;28;20405;-95
2022/09/06 10:51:23;;;;;;;6.40;4.70;;;27.30;99.90;;;;;;5031010;28;20449;-90
2022/09/06 10:54:10;;;;;;;4.83;4.43;;;27.30;99.90;;;;;;5035520;28;20486;-95
2022/09/06 10:57:02;;;;;;;4.37;4.03;;;27.40;99.90;;;;;;5027842;28;20445;-95
2022/09/06 10:59:40;;;;;;;4.93;4.20;;;27.30;99.90;;;;;;4993482;28;20449;-90
2022/09/06 11:02:48;;;;;;;4.47;4.17;;;27.30;99.90;;;;;;5013314;28;20431;-90
2022/09/06 11:05:22;;;;;;;4.23;3.93;;;27.40;99.90;;;;;;5028904;28;20774;-94
2022/09/06 11:08:02;;;;;;;4.80;4.00;;;27.40;99.90;;;;;;5029780;28;20437;-95
2022/09/06 11:10:37;;;;;;;5.17;4.47;;;27.50;99.90;;;;;;5034066;28;20459;-94
2022/09/06 11:13:09;;;;;;;4.70;4.40;;;27.50;99.90;;;;;;5036621;28;20486;-89
2022/09/06 11:16:10;;;;;;;3.90;3.60;;;27.50;99.90;;;;;;5035863;28;20527;-90
2022/09/06 11:18:54;;;;;;;4.83;4.30;;;27.50;99.90;;;;;;5064791;28;20447;-95
2022/09/06 11:21:43;;;;;;;4.03;3.73;;;27.50;99.90;;;;;;5035108;28;20520;-96
2022/09/06 11:24:23;;;;;;;4.13;3.83;;;27.50;99.80;;;;;;5037495;28;20527;-90
2022/09/06 11:27:15;;;;;;;4.83;4.50;;;27.40;99.50;;;;;;5043786;28;20479;-94
2022/09/06 11:29:44;;;;;;;4.43;4.03;;;27.40;99.80;;;;;;5036087;28;20467;-96
2022/09/06 11:32:47;;;;;;;4.33;3.93;;;27.40;99.90;;;;;;5056205;28;20486;-90
2022/09/06 11:35:32;;;;;;;4.87;4.47;;;27.40;99.90;;;;;;5024808;28;20538;-89
2022/09/06 11:38:25;;;;;;;4.10;3.80;;;27.50;99.90;;;;;;5056753;28;20467;-90
2022/09/06 11:41:03;;;;;;;4.33;3.93;;;27.50;99.90;;;;;;5033857;28;20439;-95
2022/09/06 11:43:51;;;;;;;4.40;4.00;;;27.50;99.80;;;;;;5037081;28;20438;-90
2022/09/06 11:46:35;;;;;;;4.67;4.27;;;27.50;98.60;;;;;;5038523;28;20449;-95
2022/09/06 11:49:03;;;;;;;4.67;3.90;;;27.50;99.30;;;;;;5035955;28;20510;-95
2022/09/06 11:51:40;;;;;;;4.43;4.13;;;27.50;99.40;;;;;;5019697;28;20459;-95
2022/09/06 11:54:18;;;;;;;4.93;4.50;;;27.50;99.10;;;;;;5044323;28;20845;-90
2022/09/06 11:57:10;;;;;;;4.33;4.03;;;27.50;99.40;;;;;;5056275;28;20448;-89
2022/09/06 11:59:44;;;;;;;4.30;3.90;;;27.50;99.20;;;;;;5074729;28;20517;-96
2022/09/06 12:02:28;;;;;;;4.33;4.00;;;27.50;99.10;;;;;;5039460;28;20515;-89
2022/09/06 12:05:02;;;;;;;4.13;3.83;;;27.50;99.10;;;;;;5034338;28;20504;-90
2022/09/06 12:07:29;;;;;;;4.30;4.00;;;27.50;98.90;;;;;;5037980;28;20448;-91
2022/09/06 12:09:56;;;;;;;4.97;4.57;;;27.50;98.60;;;;;;5058376;28;21046;-90
2022/09/06 12:12:47;;;;;;;10.93;9.93;;;27.60;98.90;;;;;;5057360;28;20422;-90
2022/09/06 12:15:41;;;;;;;84.87;51.30;;;27.60;98.50;;;;;;5016024;28;20458;-90
2022/09/06 12:18:07;;;;;;;8.63;7.23;;;27.60;98.30;;;;;;5019231;28;20443;-95
2022/09/06 12:20:47;;;;;;;4.03;3.70;;;27.60;98.90;;;;;;5020850;28;20433;-91
2022/09/06 12:23:35;;;;;;;5.60;3.70;;;27.60;98.50;;;;;;5036137;28;20257;-95
2022/09/06 12:26:04;;;;;;;4.87;4.37;;;27.60;98.00;;;;;;5049964;28;20535;-90
2022/09/06 12:28:36;;;;;;;5.00;4.63;;;27.60;97.80;;;;;;5050015;28;20507;-96
2022/09/06 12:31:48;;;;;;;4.80;4.40;;;27.50;97.70;;;;;;5053807;28;20442;-92
2022/09/06 12:34:43;;;;;;;5.40;4.40;;;27.50;97.30;;;;;;5060581;28;20442;-94
2022/09/06 12:37:09;;;;;;;4.70;4.30;;;27.50;97.80;;;;;;5036671;28;20445;-91
2022/09/06 12:39:35;;;;;;;3.97;3.67;;;27.40;98.20;;;;;;5052771;28;20473;-90
2022/09/06 12:42:03;;;;;;;4.30;3.90;;;27.40;98.40;;;;;;5037262;28;20909;-90
2022/09/06 12:44:33;;;;;;;4.93;4.50;;;27.50;97.70;;;;;;5023153;28;20237;-89
2022/09/06 12:47:09;;;;;;;3.73;3.43;;;27.50;98.20;;;;;;5070812;28;20509;-94
2022/09/06 12:49:35;;;;;;;4.37;3.97;;;27.50;98.60;;;;;;5053794;28;20433;-90
2022/09/06 12:52:13;;;;;;;4.20;3.90;;;27.50;98.70;;;;;;5052004;28;20416;-95
2022/09/06 12:54:49;;;;;;;4.13;3.83;;;27.50;98.30;;;;;;5036340;28;20431;-95
2022/09/06 12:57:23;;;;;;;4.40;4.10;;;27.50;97.30;;;;;;5057319;28;20625;-89